sensor_id;sensor_type;location;lat;lon;timestamp;temperature;humidity
18041;DHT22;9145;48.588;9.250;2023-07-31T00:01:08;16.40;99.90
18041;DHT22;9145;48.588;9.250;2023-07-31T00:03:35;16.30;99.90
18041;DHT22;9145;48.588;9.250;2023-07-31T00:06:01;16.30;99.90
18041;DHT22;9145;48.588;9.250;2023-07-31T00:08:28;16.30;99.90
18041;DHT22;9145;48.588;9.250;2023-07-31T00:10:56;16.30;99.90
18041;DHT22;9145;48.588;9.250;2023-07-31T00:13:23;16.20;99.90
18041;DHT22;9145;48.588;9.250;2023-07-31T00:15:50;16.20;99.90
18041;DHT22;9145;48.588;9.250;2023-07-31T00:18:17;16.10;99.90
18041;DHT22;9145;48.588;9.250;2023-07-31T00:20:44;16.10;99.90
18041;DHT22;9145;48.588;9.250;2023-07-31T00:23:10;16.00;99.90
18041;DHT22;9145;48.588;9.250;2023-07-31T00:25:37;15.90;99.90
18041;DHT22;9145;48.588;9.250;2023-07-31T00:28:05;15.80;99.90
18041;DHT22;9145;48.588;9.250;2023-07-31T00:30:32;15.80;99.90
18041;DHT22;9145;48.588;9.250;2023-07-31T00:32:59;15.70;99.90
18041;DHT22;9145;48.588;9.250;2023-07-31T00:35:26;15.70;99.90
18041;DHT22;9145;48.588;9.250;2023-07-31T00:37:52;15.70;99.90
18041;DHT22;9145;48.588;9.250;2023-07-31T00:40:19;15.60;99.90
18041;DHT22;9145;48.588;9.250;2023-07-31T00:42:46;15.50;99.90
18041;DHT22;9145;48.588;9.250;2023-07-31T00:45:14;15.50;99.90
18041;DHT22;9145;48.588;9.250;2023-07-31T00:47:41;15.30;99.90
18041;DHT22;9145;48.588;9.250;2023-07-31T00:50:08;15.30;99.90
18041;DHT22;9145;48.588;9.250;2023-07-31T00:52:36;15.30;99.90
18041;DHT22;9145;48.588;9.250;2023-07-31T00:55:03;15.40;99.90
18041;DHT22;9145;48.588;9.250;2023-07-31T00:57:31;15.40;99.90
18041;DHT22;9145;48.588;9.250;2023-07-31T00:59:58;15.40;99.90
18041;DHT22;9145;48.588;9.250;2023-07-31T01:02:26;15.50;99.90
18041;DHT22;9145;48.588;9.250;2023-07-31T01:04:53;15.50;99.90
18041;DHT22;9145;48.588;9.250;2023-07-31T01:07:24;15.50;99.90
18041;DHT22;9145;48.588;9.250;2023-07-31T01:10:00;15.50;99.90
18041;DHT22;9145;48.588;9.250;2023-07-31T01:12:28;15.40;99.90
18041;DHT22;9145;48.588;9.250;2023-07-31T01:15:03;15.40;99.90
18041;DHT22;9145;48.588;9.250;2023-07-31T01:17:31;15.40;99.90
18041;DHT22;9145;48.588;9.250;2023-07-31T01:20:01;15.30;99.90
18041;DHT22;9145;48.588;9.250;2023-07-31T01:22:39;15.30;99.90
18041;DHT22;9145;48.588;9.250;2023-07-31T01:25:16;15.30;99.90
18041;DHT22;9145;48.588;9.250;2023-07-31T01:27:53;15.20;99.90
18041;DHT22;9145;48.588;9.250;2023-07-31T01:30:24;15.20;99.90
18041;DHT22;9145;48.588;9.250;2023-07-31T01:32:53;15.20;99.90
18041;DHT22;9145;48.588;9.250;2023-07-31T01:35:21;15.20;99.90
18041;DHT22;9145;48.588;9.250;2023-07-31T01:37:48;15.10;99.90
18041;DHT22;9145;48.588;9.250;2023-07-31T01:40:15;15.10;99.90
18041;DHT22;9145;48.588;9.250;2023-07-31T01:42:41;15.10;99.90
18041;DHT22;9145;48.588;9.250;2023-07-31T01:45:11;15.10;99.90
18041;DHT22;9145;48.588;9.250;2023-07-31T01:47:38;15.00;99.90
18041;DHT22;9145;48.588;9.250;2023-07-31T01:50:05;14.90;99.90
18041;DHT22;9145;48.588;9.250;2023-07-31T01:52:32;14.90;99.90
18041;DHT22;9145;48.588;9.250;2023-07-31T01:54:59;14.80;99.90
18041;DHT22;9145;48.588;9.250;2023-07-31T01:57:26;14.70;99.90
18041;DHT22;9145;48.588;9.250;2023-07-31T01:59:53;14.70;99.90
18041;DHT22;9145;48.588;9.250;2023-07-31T02:02:21;14.70;99.90
18041;DHT22;9145;48.588;9.250;2023-07-31T02:04:49;14.60;99.90
18041;DHT22;9145;48.588;9.250;2023-07-31T02:07:15;14.70;99.90
18041;DHT22;9145;48.588;9.250;2023-07-31T02:09:42;14.70;99.90
18041;DHT22;9145;48.588;9.250;2023-07-31T02:12:09;14.70;99.90
18041;DHT22;9145;48.588;9.250;2023-07-31T02:14:36;14.70;99.90
18041;DHT22;9145;48.588;9.250;2023-07-31T02:17:03;14.70;99.90
18041;DHT22;9145;48.588;9.250;2023-07-31T02:19:31;14.70;99.90
18041;DHT22;9145;48.588;9.250;2023-07-31T02:21:58;14.80;99.90
18041;DHT22;9145;48.588;9.250;2023-07-31T02:24:24;14.80;99.90
18041;DHT22;9145;48.588;9.250;2023-07-31T02:26:51;14.80;99.90
18041;DHT22;9145;48.588;9.250;2023-07-31T02:29:18;14.80;99.90
18041;DHT22;9145;48.588;9.250;2023-07-31T02:31:45;14.80;99.90
18041;DHT22;9145;48.588;9.250;2023-07-31T02:34:12;14.80;99.90
18041;DHT22;9145;48.588;9.250;2023-07-31T02:36:40;14.70;99.90
18041;DHT22;9145;48.588;9.250;2023-07-31T02:39:07;14.70;99.90
18041;DHT22;9145;48.588;9.250;2023-07-31T02:41:33;14.60;99.90
18041;DHT22;9145;48.588;9.250;2023-07-31T02:44:00;14.60;99.90
18041;DHT22;9145;48.588;9.250;2023-07-31T02:46:27;14.60;99.90
18041;DHT22;9145;48.588;9.250;2023-07-31T02:48:54;14.70;99.90
18041;DHT22;9145;48.588;9.250;2023-07-31T02:51:21;14.70;99.90
18041;DHT22;9145;48.588;9.250;2023-07-31T02:53:49;14.60;99.90
18041;DHT22;9145;48.588;9.250;2023-07-31T02:56:16;14.60;99.90
18041;DHT22;9145;48.588;9.250;2023-07-31T02:58:42;14.60;99.90
18041;DHT22;9145;48.588;9.250;2023-07-31T03:01:09;14.60;99.90
18041;DHT22;9145;48.588;9.250;2023-07-31T03:03:36;14.60;99.90
18041;DHT22;9145;48.588;9.250;2023-07-31T03:06:03;14.60;99.90
18041;DHT22;9145;48.588;9.250;2023-07-31T03:08:30;14.70;99.90
18041;DHT22;9145;48.588;9.250;2023-07-31T03:10:58;14.70;99.90
18041;DHT22;9145;48.588;9.250;2023-07-31T03:13:25;14.70;99.90
18041;DHT22;9145;48.588;9.250;2023-07-31T03:15:51;14.60;99.90
18041;DHT22;9145;48.588;9.250;2023-07-31T03:18:18;14.50;99.90
18041;DHT22;9145;48.588;9.250;2023-07-31T03:20:45;14.50;99.90
18041;DHT22;9145;48.588;9.250;2023-07-31T03:23:12;14.30;99.90
18041;DHT22;9145;48.588;9.250;2023-07-31T03:25:41;14.20;99.90
18041;DHT22;9145;48.588;9.250;2023-07-31T03:28:09;14.20;99.90
18041;DHT22;9145;48.588;9.250;2023-07-31T03:30:36;14.30;99.90
18041;DHT22;9145;48.588;9.250;2023-07-31T03:33:03;14.30;99.90
18041;DHT22;9145;48.588;9.250;2023-07-31T03:35:30;14.30;99.90
18041;DHT22;9145;48.588;9.250;2023-07-31T03:37:57;14.40;99.90
18041;DHT22;9145;48.588;9.250;2023-07-31T03:40:24;14.40;99.90
18041;DHT22;9145;48.588;9.250;2023-07-31T03:42:51;14.40;99.90
18041;DHT22;9145;48.588;9.250;2023-07-31T03:45:19;14.40;99.90
18041;DHT22;9145;48.588;9.250;2023-07-31T03:47:46;14.40;99.90
18041;DHT22;9145;48.588;9.250;2023-07-31T03:50:12;14.40;99.90
18041;DHT22;9145;48.588;9.250;2023-07-31T03:52:40;14.40;99.90
18041;DHT22;9145;48.588;9.250;2023-07-31T03:55:08;14.50;99.90
18041;DHT22;9145;48.588;9.250;2023-07-31T03:57:35;14.50;99.90
18041;DHT22;9145;48.588;9.250;2023-07-31T04:00:01;14.50;99.90
18041;DHT22;9145;48.588;9.250;2023-07-31T04:02:30;14.50;99.90
18041;DHT22;9145;48.588;9.250;2023-07-31T04:04:56;14.50;99.90
18041;DHT22;9145;48.588;9.250;2023-07-31T04:07:23;14.50;99.90
18041;DHT22;9145;48.588;9.250;2023-07-31T04:09:50;14.50;99.90
18041;DHT22;9145;48.588;9.250;2023-07-31T04:12:17;14.50;99.90
18041;DHT22;9145;48.588;9.250;2023-07-31T04:14:43;14.40;99.90
18041;DHT22;9145;48.588;9.250;2023-07-31T04:17:10;14.40;99.90
18041;DHT22;9145;48.588;9.250;2023-07-31T04:19:38;14.40;99.90
18041;DHT22;9145;48.588;9.250;2023-07-31T04:22:05;14.50;99.90
18041;DHT22;9145;48.588;9.250;2023-07-31T04:24:32;14.50;99.90
18041;DHT22;9145;48.588;9.250;2023-07-31T04:26:59;14.40;99.90
18041;DHT22;9145;48.588;9.250;2023-07-31T04:29:26;14.40;99.90
18041;DHT22;9145;48.588;9.250;2023-07-31T04:31:52;14.40;99.90
18041;DHT22;9145;48.588;9.250;2023-07-31T04:34:19;14.50;99.90
18041;DHT22;9145;48.588;9.250;2023-07-31T04:36:47;14.50;99.90
18041;DHT22;9145;48.588;9.250;2023-07-31T04:39:14;14.60;99.90
18041;DHT22;9145;48.588;9.250;2023-07-31T04:41:41;14.60;99.90
18041;DHT22;9145;48.588;9.250;2023-07-31T04:44:08;14.60;99.90
18041;DHT22;9145;48.588;9.250;2023-07-31T04:46:36;14.60;99.90
18041;DHT22;9145;48.588;9.250;2023-07-31T04:49:03;14.70;99.90
18041;DHT22;9145;48.588;9.250;2023-07-31T04:51:30;14.70;99.90
18041;DHT22;9145;48.588;9.250;2023-07-31T04:53:58;14.60;99.90
18041;DHT22;9145;48.588;9.250;2023-07-31T04:56:25;14.70;99.90
18041;DHT22;9145;48.588;9.250;2023-07-31T04:58:52;14.70;99.90
18041;DHT22;9145;48.588;9.250;2023-07-31T05:01:19;14.70;99.90
18041;DHT22;9145;48.588;9.250;2023-07-31T05:03:46;14.70;99.90
18041;DHT22;9145;48.588;9.250;2023-07-31T05:06:13;14.70;99.90
18041;DHT22;9145;48.588;9.250;2023-07-31T05:08:40;14.70;99.90
18041;DHT22;9145;48.588;9.250;2023-07-31T05:11:09;14.80;99.90
18041;DHT22;9145;48.588;9.250;2023-07-31T05:13:35;14.60;99.90
18041;DHT22;9145;48.588;9.250;2023-07-31T05:16:02;14.70;99.90
18041;DHT22;9145;48.588;9.250;2023-07-31T05:18:29;14.70;99.90
18041;DHT22;9145;48.588;9.250;2023-07-31T05:20:56;14.80;99.90
18041;DHT22;9145;48.588;9.250;2023-07-31T05:23:23;14.80;99.90
18041;DHT22;9145;48.588;9.250;2023-07-31T05:25:49;14.90;99.90
18041;DHT22;9145;48.588;9.250;2023-07-31T05:28:18;14.90;99.90
18041;DHT22;9145;48.588;9.250;2023-07-31T05:30:44;14.90;99.90
18041;DHT22;9145;48.588;9.250;2023-07-31T05:33:11;14.90;99.90
18041;DHT22;9145;48.588;9.250;2023-07-31T05:35:38;15.00;99.90
18041;DHT22;9145;48.588;9.250;2023-07-31T05:38:05;15.00;99.90
18041;DHT22;9145;48.588;9.250;2023-07-31T05:40:32;15.00;99.90
18041;DHT22;9145;48.588;9.250;2023-07-31T05:42:59;15.00;99.90
18041;DHT22;9145;48.588;9.250;2023-07-31T05:45:27;15.10;99.90
18041;DHT22;9145;48.588;9.250;2023-07-31T05:47:54;15.20;99.90
18041;DHT22;9145;48.588;9.250;2023-07-31T05:50:21;15.30;99.90
18041;DHT22;9145;48.588;9.250;2023-07-31T05:52:48;15.30;99.90
18041;DHT22;9145;48.588;9.250;2023-07-31T05:55:15;15.40;99.90
18041;DHT22;9145;48.588;9.250;2023-07-31T05:57:42;15.50;99.90
18041;DHT22;9145;48.588;9.250;2023-07-31T06:00:12;15.60;99.90
18041;DHT22;9145;48.588;9.250;2023-07-31T06:02:40;15.70;99.90
18041;DHT22;9145;48.588;9.250;2023-07-31T06:05:07;15.80;99.90
18041;DHT22;9145;48.588;9.250;2023-07-31T06:07:34;15.90;99.90
18041;DHT22;9145;48.588;9.250;2023-07-31T06:10:01;16.00;99.90
18041;DHT22;9145;48.588;9.250;2023-07-31T06:12:30;16.10;99.90
18041;DHT22;9145;48.588;9.250;2023-07-31T06:14:57;16.20;99.90
18041;DHT22;9145;48.588;9.250;2023-07-31T06:17:24;16.20;99.90
18041;DHT22;9145;48.588;9.250;2023-07-31T06:19:52;16.30;99.90
18041;DHT22;9145;48.588;9.250;2023-07-31T06:22:19;16.30;99.90
18041;DHT22;9145;48.588;9.250;2023-07-31T06:24:46;16.40;99.90
18041;DHT22;9145;48.588;9.250;2023-07-31T06:27:13;16.50;99.90
18041;DHT22;9145;48.588;9.250;2023-07-31T06:29:40;16.50;99.90
18041;DHT22;9145;48.588;9.250;2023-07-31T06:32:07;16.50;99.90
18041;DHT22;9145;48.588;9.250;2023-07-31T06:34:34;16.30;99.90
18041;DHT22;9145;48.588;9.250;2023-07-31T06:37:02;16.40;99.90
18041;DHT22;9145;48.588;9.250;2023-07-31T06:39:29;16.50;99.90
18041;DHT22;9145;48.588;9.250;2023-07-31T06:41:56;16.50;99.90
18041;DHT22;9145;48.588;9.250;2023-07-31T06:44:23;16.60;99.90
18041;DHT22;9145;48.588;9.250;2023-07-31T06:46:50;16.60;99.90
18041;DHT22;9145;48.588;9.250;2023-07-31T06:49:17;16.70;99.90
18041;DHT22;9145;48.588;9.250;2023-07-31T06:51:43;16.70;99.90
18041;DHT22;9145;48.588;9.250;2023-07-31T06:54:12;16.80;99.90
18041;DHT22;9145;48.588;9.250;2023-07-31T06:56:38;16.80;99.90
18041;DHT22;9145;48.588;9.250;2023-07-31T06:59:05;16.90;99.90
18041;DHT22;9145;48.588;9.250;2023-07-31T07:01:32;17.00;99.90
18041;DHT22;9145;48.588;9.250;2023-07-31T07:03:59;17.10;99.90
18041;DHT22;9145;48.588;9.250;2023-07-31T07:06:26;17.30;99.90
18041;DHT22;9145;48.588;9.250;2023-07-31T07:08:53;17.50;99.90
18041;DHT22;9145;48.588;9.250;2023-07-31T07:11:21;17.50;99.90
18041;DHT22;9145;48.588;9.250;2023-07-31T07:13:48;17.60;99.90
18041;DHT22;9145;48.588;9.250;2023-07-31T07:16:14;17.70;99.90
18041;DHT22;9145;48.588;9.250;2023-07-31T07:18:41;17.80;99.90
18041;DHT22;9145;48.588;9.250;2023-07-31T07:21:08;17.80;99.90
18041;DHT22;9145;48.588;9.250;2023-07-31T07:23:35;18.00;99.90
18041;DHT22;9145;48.588;9.250;2023-07-31T07:26:02;18.20;99.90
18041;DHT22;9145;48.588;9.250;2023-07-31T07:28:30;18.30;99.90
18041;DHT22;9145;48.588;9.250;2023-07-31T07:30:57;18.40;99.90
18041;DHT22;9145;48.588;9.250;2023-07-31T07:33:24;18.40;99.90
18041;DHT22;9145;48.588;9.250;2023-07-31T07:35:50;18.40;99.90
18041;DHT22;9145;48.588;9.250;2023-07-31T07:38:17;18.40;99.90
18041;DHT22;9145;48.588;9.250;2023-07-31T07:40:44;18.40;99.90
18041;DHT22;9145;48.588;9.250;2023-07-31T07:43:12;18.40;99.90
18041;DHT22;9145;48.588;9.250;2023-07-31T07:45:40;18.30;99.90
18041;DHT22;9145;48.588;9.250;2023-07-31T07:48:07;18.30;99.90
18041;DHT22;9145;48.588;9.250;2023-07-31T07:50:34;18.30;99.90
18041;DHT22;9145;48.588;9.250;2023-07-31T07:53:00;18.30;99.90
18041;DHT22;9145;48.588;9.250;2023-07-31T07:55:27;18.40;99.90
18041;DHT22;9145;48.588;9.250;2023-07-31T07:57:54;18.40;99.90
18041;DHT22;9145;48.588;9.250;2023-07-31T08:00:21;18.50;99.90
18041;DHT22;9145;48.588;9.250;2023-07-31T08:02:49;18.70;99.90
18041;DHT22;9145;48.588;9.250;2023-07-31T08:05:16;19.00;99.90
18041;DHT22;9145;48.588;9.250;2023-07-31T08:07:43;19.20;99.90
18041;DHT22;9145;48.588;9.250;2023-07-31T08:10:10;19.30;99.90
18041;DHT22;9145;48.588;9.250;2023-07-31T08:12:37;19.30;99.90
18041;DHT22;9145;48.588;9.250;2023-07-31T08:15:04;19.30;99.90
18041;DHT22;9145;48.588;9.250;2023-07-31T08:17:31;19.20;99.90
18041;DHT22;9145;48.588;9.250;2023-07-31T08:19:59;19.30;99.90
18041;DHT22;9145;48.588;9.250;2023-07-31T08:22:26;19.40;99.90
18041;DHT22;9145;48.588;9.250;2023-07-31T08:24:53;19.40;99.90
18041;DHT22;9145;48.588;9.250;2023-07-31T08:27:20;19.50;99.90
18041;DHT22;9145;48.588;9.250;2023-07-31T08:29:47;19.60;99.90
18041;DHT22;9145;48.588;9.250;2023-07-31T08:32:13;19.70;99.90
18041;DHT22;9145;48.588;9.250;2023-07-31T08:34:40;19.80;99.90
18041;DHT22;9145;48.588;9.250;2023-07-31T08:37:08;19.90;99.90
18041;DHT22;9145;48.588;9.250;2023-07-31T08:39:36;19.90;99.90
18041;DHT22;9145;48.588;9.250;2023-07-31T08:42:07;20.20;99.90
18041;DHT22;9145;48.588;9.250;2023-07-31T08:44:35;20.50;99.90
18041;DHT22;9145;48.588;9.250;2023-07-31T08:47:02;20.50;99.90
18041;DHT22;9145;48.588;9.250;2023-07-31T08:49:30;20.60;99.90
18041;DHT22;9145;48.588;9.250;2023-07-31T08:51:58;20.60;99.90
18041;DHT22;9145;48.588;9.250;2023-07-31T08:54:26;20.60;99.90
18041;DHT22;9145;48.588;9.250;2023-07-31T08:56:56;20.40;99.90
18041;DHT22;9145;48.588;9.250;2023-07-31T08:59:26;20.30;99.90
18041;DHT22;9145;48.588;9.250;2023-07-31T09:01:55;20.50;99.90
18041;DHT22;9145;48.588;9.250;2023-07-31T09:04:23;20.70;99.90
18041;DHT22;9145;48.588;9.250;2023-07-31T09:06:50;20.90;99.90
18041;DHT22;9145;48.588;9.250;2023-07-31T09:09:20;21.10;99.90
18041;DHT22;9145;48.588;9.250;2023-07-31T09:11:49;21.00;99.90
18041;DHT22;9145;48.588;9.250;2023-07-31T09:14:18;21.20;99.90
18041;DHT22;9145;48.588;9.250;2023-07-31T09:16:52;21.00;99.90
18041;DHT22;9145;48.588;9.250;2023-07-31T09:19:26;21.10;99.90
18041;DHT22;9145;48.588;9.250;2023-07-31T09:21:53;21.10;99.90
18041;DHT22;9145;48.588;9.250;2023-07-31T09:24:27;21.20;99.90
18041;DHT22;9145;48.588;9.250;2023-07-31T09:26:57;21.20;99.90
18041;DHT22;9145;48.588;9.250;2023-07-31T09:29:25;21.20;99.90
18041;DHT22;9145;48.588;9.250;2023-07-31T09:31:53;21.20;99.90
18041;DHT22;9145;48.588;9.250;2023-07-31T09:34:29;20.90;99.90
18041;DHT22;9145;48.588;9.250;2023-07-31T09:37:02;20.90;99.90
18041;DHT22;9145;48.588;9.250;2023-07-31T09:39:29;20.90;99.90
18041;DHT22;9145;48.588;9.250;2023-07-31T09:41:58;20.80;99.90
18041;DHT22;9145;48.588;9.250;2023-07-31T09:44:38;20.80;99.90
18041;DHT22;9145;48.588;9.250;2023-07-31T09:47:06;20.70;99.90
18041;DHT22;9145;48.588;9.250;2023-07-31T09:49:33;20.80;99.90
18041;DHT22;9145;48.588;9.250;2023-07-31T09:52:00;20.80;99.90
18041;DHT22;9145;48.588;9.250;2023-07-31T09:54:27;21.00;99.90
18041;DHT22;9145;48.588;9.250;2023-07-31T09:56:54;21.10;99.90
18041;DHT22;9145;48.588;9.250;2023-07-31T09:59:24;21.20;99.90
18041;DHT22;9145;48.588;9.250;2023-07-31T10:01:52;21.20;99.90
18041;DHT22;9145;48.588;9.250;2023-07-31T10:04:27;21.30;99.90
18041;DHT22;9145;48.588;9.250;2023-07-31T10:06:55;21.50;99.90
18041;DHT22;9145;48.588;9.250;2023-07-31T10:09:24;21.50;99.90
18041;DHT22;9145;48.588;9.250;2023-07-31T10:11:58;21.70;99.90
18041;DHT22;9145;48.588;9.250;2023-07-31T10:14:28;21.70;99.90
18041;DHT22;9145;48.588;9.250;2023-07-31T10:16:56;21.60;99.90
18041;DHT22;9145;48.588;9.250;2023-07-31T10:19:23;21.60;99.90
18041;DHT22;9145;48.588;9.250;2023-07-31T10:21:51;21.80;99.90
18041;DHT22;9145;48.588;9.250;2023-07-31T10:24:18;21.90;99.90
18041;DHT22;9145;48.588;9.250;2023-07-31T10:26:47;21.90;99.90
18041;DHT22;9145;48.588;9.250;2023-07-31T10:29:16;22.10;99.90
18041;DHT22;9145;48.588;9.250;2023-07-31T10:31:44;22.20;99.90
18041;DHT22;9145;48.588;9.250;2023-07-31T10:34:12;22.20;99.90
18041;DHT22;9145;48.588;9.250;2023-07-31T10:36:39;22.40;99.90
18041;DHT22;9145;48.588;9.250;2023-07-31T10:39:35;22.60;99.90
18041;DHT22;9145;48.588;9.250;2023-07-31T10:42:10;22.70;99.90
18041;DHT22;9145;48.588;9.250;2023-07-31T10:44:37;22.80;99.90
18041;DHT22;9145;48.588;9.250;2023-07-31T10:47:06;22.80;99.90
18041;DHT22;9145;48.588;9.250;2023-07-31T10:49:33;23.00;99.90
18041;DHT22;9145;48.588;9.250;2023-07-31T10:52:03;23.10;99.90
18041;DHT22;9145;48.588;9.250;2023-07-31T10:54:30;23.10;99.90
18041;DHT22;9145;48.588;9.250;2023-07-31T10:56:57;23.20;99.90
18041;DHT22;9145;48.588;9.250;2023-07-31T10:59:26;23.50;99.90
18041;DHT22;9145;48.588;9.250;2023-07-31T11:01:55;23.60;99.90
18041;DHT22;9145;48.588;9.250;2023-07-31T11:04:25;23.70;99.90
18041;DHT22;9145;48.588;9.250;2023-07-31T11:06:56;23.50;99.90
18041;DHT22;9145;48.588;9.250;2023-07-31T11:09:24;23.50;99.90
18041;DHT22;9145;48.588;9.250;2023-07-31T11:11:54;23.60;99.90
18041;DHT22;9145;48.588;9.250;2023-07-31T11:14:21;23.80;99.90
18041;DHT22;9145;48.588;9.250;2023-07-31T11:16:50;23.90;99.90
18041;DHT22;9145;48.588;9.250;2023-07-31T11:19:21;23.90;99.90
18041;DHT22;9145;48.588;9.250;2023-07-31T11:21:50;23.70;99.90
18041;DHT22;9145;48.588;9.250;2023-07-31T11:24:18;23.60;99.90
18041;DHT22;9145;48.588;9.250;2023-07-31T11:26:49;23.60;99.90
18041;DHT22;9145;48.588;9.250;2023-07-31T11:29:16;23.30;99.90
18041;DHT22;9145;48.588;9.250;2023-07-31T11:31:43;23.10;99.90
18041;DHT22;9145;48.588;9.250;2023-07-31T11:34:10;23.10;99.90
18041;DHT22;9145;48.588;9.250;2023-07-31T11:36:37;23.20;99.90
18041;DHT22;9145;48.588;9.250;2023-07-31T11:39:10;23.10;99.90
18041;DHT22;9145;48.588;9.250;2023-07-31T11:41:40;23.00;99.90
18041;DHT22;9145;48.588;9.250;2023-07-31T11:44:07;22.90;99.90
18041;DHT22;9145;48.588;9.250;2023-07-31T11:46:34;22.90;99.90
18041;DHT22;9145;48.588;9.250;2023-07-31T11:49:02;22.90;99.90
18041;DHT22;9145;48.588;9.250;2023-07-31T11:51:29;22.80;99.90
18041;DHT22;9145;48.588;9.250;2023-07-31T11:53:57;22.80;99.90
18041;DHT22;9145;48.588;9.250;2023-07-31T11:56:26;22.90;99.90
18041;DHT22;9145;48.588;9.250;2023-07-31T11:58:56;22.90;99.90
18041;DHT22;9145;48.588;9.250;2023-07-31T12:01:24;22.90;99.90
18041;DHT22;9145;48.588;9.250;2023-07-31T12:03:52;22.80;99.90
18041;DHT22;9145;48.588;9.250;2023-07-31T12:06:18;22.80;99.90
18041;DHT22;9145;48.588;9.250;2023-07-31T12:08:46;22.70;99.90
18041;DHT22;9145;48.588;9.250;2023-07-31T12:11:13;22.70;99.90
18041;DHT22;9145;48.588;9.250;2023-07-31T12:13:41;22.70;99.90
18041;DHT22;9145;48.588;9.250;2023-07-31T12:16:08;22.80;99.90
18041;DHT22;9145;48.588;9.250;2023-07-31T12:18:37;22.80;99.90
18041;DHT22;9145;48.588;9.250;2023-07-31T12:21:05;22.70;99.90
18041;DHT22;9145;48.588;9.250;2023-07-31T12:23:33;22.70;99.90
18041;DHT22;9145;48.588;9.250;2023-07-31T12:26:00;22.60;99.90
18041;DHT22;9145;48.588;9.250;2023-07-31T12:28:28;22.60;99.90
18041;DHT22;9145;48.588;9.250;2023-07-31T12:30:59;22.60;99.90
18041;DHT22;9145;48.588;9.250;2023-07-31T12:33:31;22.70;99.90
18041;DHT22;9145;48.588;9.250;2023-07-31T12:35:58;22.60;99.90
18041;DHT22;9145;48.588;9.250;2023-07-31T12:38:25;22.50;99.90
18041;DHT22;9145;48.588;9.250;2023-07-31T12:40:51;22.40;99.90
18041;DHT22;9145;48.588;9.250;2023-07-31T12:43:18;22.40;99.90
18041;DHT22;9145;48.588;9.250;2023-07-31T12:45:45;22.30;99.90
18041;DHT22;9145;48.588;9.250;2023-07-31T12:48:14;22.20;99.90
18041;DHT22;9145;48.588;9.250;2023-07-31T12:50:41;22.20;99.90
18041;DHT22;9145;48.588;9.250;2023-07-31T12:53:08;22.20;99.90
18041;DHT22;9145;48.588;9.250;2023-07-31T12:55:34;22.40;99.90
18041;DHT22;9145;48.588;9.250;2023-07-31T12:58:02;22.40;99.90
18041;DHT22;9145;48.588;9.250;2023-07-31T13:00:29;22.60;99.90
18041;DHT22;9145;48.588;9.250;2023-07-31T13:02:56;22.70;99.90
18041;DHT22;9145;48.588;9.250;2023-07-31T13:05:24;22.90;99.90
18041;DHT22;9145;48.588;9.250;2023-07-31T13:07:51;23.10;99.90
18041;DHT22;9145;48.588;9.250;2023-07-31T13:10:17;23.30;99.90
18041;DHT22;9145;48.588;9.250;2023-07-31T13:12:44;23.50;99.90
18041;DHT22;9145;48.588;9.250;2023-07-31T13:15:12;23.50;99.90
18041;DHT22;9145;48.588;9.250;2023-07-31T13:17:38;23.60;99.90
18041;DHT22;9145;48.588;9.250;2023-07-31T13:20:06;23.60;99.90
18041;DHT22;9145;48.588;9.250;2023-07-31T13:22:35;23.70;99.90
18041;DHT22;9145;48.588;9.250;2023-07-31T13:25:01;23.80;99.90
18041;DHT22;9145;48.588;9.250;2023-07-31T13:27:28;24.00;99.90
18041;DHT22;9145;48.588;9.250;2023-07-31T13:29:55;24.10;99.90
18041;DHT22;9145;48.588;9.250;2023-07-31T13:32:22;24.00;99.90
18041;DHT22;9145;48.588;9.250;2023-07-31T13:34:49;24.00;99.90
18041;DHT22;9145;48.588;9.250;2023-07-31T13:37:16;23.80;99.90
18041;DHT22;9145;48.588;9.250;2023-07-31T13:39:44;23.80;99.90
18041;DHT22;9145;48.588;9.250;2023-07-31T13:42:11;23.80;99.90
18041;DHT22;9145;48.588;9.250;2023-07-31T13:44:38;23.70;99.90
18041;DHT22;9145;48.588;9.250;2023-07-31T13:47:06;23.50;99.90
18041;DHT22;9145;48.588;9.250;2023-07-31T13:49:33;23.30;99.90
18041;DHT22;9145;48.588;9.250;2023-07-31T13:52:00;23.10;99.90
18041;DHT22;9145;48.588;9.250;2023-07-31T13:54:27;23.00;99.90
18041;DHT22;9145;48.588;9.250;2023-07-31T13:56:55;22.80;99.90
18041;DHT22;9145;48.588;9.250;2023-07-31T13:59:22;22.70;99.90
18041;DHT22;9145;48.588;9.250;2023-07-31T14:01:50;22.70;99.90
18041;DHT22;9145;48.588;9.250;2023-07-31T14:04:17;22.60;99.90
18041;DHT22;9145;48.588;9.250;2023-07-31T14:06:44;22.60;99.90
18041;DHT22;9145;48.588;9.250;2023-07-31T14:09:10;22.50;99.90
18041;DHT22;9145;48.588;9.250;2023-07-31T14:11:37;22.50;99.90
18041;DHT22;9145;48.588;9.250;2023-07-31T14:14:05;22.40;99.90
18041;DHT22;9145;48.588;9.250;2023-07-31T14:16:32;22.40;99.90
18041;DHT22;9145;48.588;9.250;2023-07-31T14:18:59;22.30;99.90
18041;DHT22;9145;48.588;9.250;2023-07-31T14:21:26;22.20;99.90
18041;DHT22;9145;48.588;9.250;2023-07-31T14:23:52;22.10;99.90
18041;DHT22;9145;48.588;9.250;2023-07-31T14:26:19;22.00;99.90
18041;DHT22;9145;48.588;9.250;2023-07-31T14:28:46;22.00;99.90
18041;DHT22;9145;48.588;9.250;2023-07-31T14:31:14;22.00;99.90
18041;DHT22;9145;48.588;9.250;2023-07-31T14:33:41;21.90;99.90
18041;DHT22;9145;48.588;9.250;2023-07-31T14:36:08;21.90;99.90
18041;DHT22;9145;48.588;9.250;2023-07-31T14:38:35;22.00;99.90
18041;DHT22;9145;48.588;9.250;2023-07-31T14:41:01;21.90;99.90
18041;DHT22;9145;48.588;9.250;2023-07-31T14:43:28;21.90;99.90
18041;DHT22;9145;48.588;9.250;2023-07-31T14:45:55;21.90;99.90
18041;DHT22;9145;48.588;9.250;2023-07-31T14:48:26;21.80;99.90
18041;DHT22;9145;48.588;9.250;2023-07-31T14:50:54;21.80;99.90
18041;DHT22;9145;48.588;9.250;2023-07-31T14:53:21;21.80;99.90
18041;DHT22;9145;48.588;9.250;2023-07-31T14:55:48;21.80;99.90
18041;DHT22;9145;48.588;9.250;2023-07-31T14:58:15;21.80;99.90
18041;DHT22;9145;48.588;9.250;2023-07-31T15:00:42;21.80;99.90
18041;DHT22;9145;48.588;9.250;2023-07-31T15:03:09;21.80;99.90
18041;DHT22;9145;48.588;9.250;2023-07-31T15:05:37;21.80;99.90
18041;DHT22;9145;48.588;9.250;2023-07-31T15:08:04;21.70;99.90
18041;DHT22;9145;48.588;9.250;2023-07-31T15:10:31;21.80;99.90
18041;DHT22;9145;48.588;9.250;2023-07-31T15:12:58;21.70;99.90
18041;DHT22;9145;48.588;9.250;2023-07-31T15:15:27;21.70;99.90
18041;DHT22;9145;48.588;9.250;2023-07-31T15:17:53;21.70;99.90
18041;DHT22;9145;48.588;9.250;2023-07-31T15:20:20;21.70;99.90
18041;DHT22;9145;48.588;9.250;2023-07-31T15:22:49;21.70;99.90
18041;DHT22;9145;48.588;9.250;2023-07-31T15:25:16;21.70;99.90
18041;DHT22;9145;48.588;9.250;2023-07-31T15:27:43;21.80;99.90
18041;DHT22;9145;48.588;9.250;2023-07-31T15:30:10;21.80;99.90
18041;DHT22;9145;48.588;9.250;2023-07-31T15:32:37;21.80;99.90
18041;DHT22;9145;48.588;9.250;2023-07-31T15:35:05;21.80;99.90
18041;DHT22;9145;48.588;9.250;2023-07-31T15:37:32;21.80;99.90
18041;DHT22;9145;48.588;9.250;2023-07-31T15:40:00;21.90;99.90
18041;DHT22;9145;48.588;9.250;2023-07-31T15:42:27;21.90;99.90
18041;DHT22;9145;48.588;9.250;2023-07-31T15:44:54;22.00;99.90
18041;DHT22;9145;48.588;9.250;2023-07-31T15:47:20;22.10;99.90